Terminal Aerodrome Forecast
Issued by NWS

Home | Current Version | Previous Version | Text Only | Print | Product List | Glossary On
Versions: 1 2 3 4 5 6 7 8 9 10 11 12 13 14 15
000
FTUS43 KOAX 022300
TAFCDR
TAF
KCDR 022325Z 0300/0324 18008KT P6SM SKC
     FM030200 19013KT P6SM FEW200
     FM030800 21009KT P6SM FEW200
     FM031800 25010G16KT P6SM FEW200=

USA.gov is the U.S. government's official web portal to all federal, state and local government web resources and services.